createdAt,value
2023-01-13T00:01:27.042Z,0.77
2023-01-13T00:03:54.012Z,0.70
2023-01-13T00:06:25.847Z,1.17
2023-01-13T00:08:53.734Z,0.98
2023-01-13T00:11:21.140Z,1.10
2023-01-13T00:13:48.048Z,1.02
2023-01-13T00:16:17.023Z,1.08
2023-01-13T00:18:44.409Z,0.80
2023-01-13T00:21:17.966Z,1.38
2023-01-13T00:23:45.238Z,1.58
2023-01-13T00:26:15.549Z,1.15
2023-01-13T00:28:42.568Z,1.00
2023-01-13T00:31:12.804Z,1.05
2023-01-13T00:33:40.096Z,1.40
2023-01-13T00:36:08.518Z,1.00
2023-01-13T00:38:36.058Z,1.13
2023-01-13T00:41:14.985Z,1.35
2023-01-13T00:43:42.463Z,1.48
2023-01-13T00:46:11.856Z,1.75
2023-01-13T00:48:39.143Z,1.52
2023-01-13T00:51:13.869Z,1.27
2023-01-13T00:53:44.341Z,1.33
2023-01-13T00:56:18.057Z,1.50
2023-01-13T00:58:46.538Z,1.27
2023-01-13T01:01:20.948Z,1.35
2023-01-13T01:03:48.932Z,2.45
2023-01-13T01:06:18.889Z,1.50
2023-01-13T01:08:46.098Z,2.60
2023-01-13T01:11:16.158Z,2.63
2023-01-13T01:13:43.429Z,1.77
2023-01-13T01:16:13.286Z,2.65
2023-01-13T01:18:42.403Z,2.50
2023-01-13T01:21:10.127Z,2.05
2023-01-13T01:23:38.429Z,2.22
2023-01-13T01:26:17.309Z,2.05
2023-01-13T01:28:44.616Z,2.50
2023-01-13T01:31:17.873Z,2.30
2023-01-13T01:33:46.547Z,2.00
2023-01-13T01:36:15.228Z,1.95
2023-01-13T01:38:42.189Z,2.97
2023-01-13T01:41:15.936Z,2.50
2023-01-13T01:44:06.022Z,1.80
2023-01-13T01:46:40.067Z,2.80
2023-01-13T01:49:12.785Z,2.20
2023-01-13T01:51:46.017Z,1.90
2023-01-13T01:54:20.221Z,1.90
2023-01-13T01:56:47.898Z,2.58
2023-01-13T01:59:15.409Z,2.25
2023-01-13T02:01:43.121Z,1.58
2023-01-13T02:04:16.277Z,2.10
2023-01-13T02:06:45.818Z,1.98
2023-01-13T02:09:13.148Z,2.15
2023-01-13T02:11:58.750Z,2.97
2023-01-13T02:14:28.664Z,2.38
2023-01-13T02:17:04.059Z,2.10
2023-01-13T02:19:33.608Z,4.25
2023-01-13T02:22:03.168Z,2.35
2023-01-13T02:24:51.526Z,2.92
2023-01-13T02:27:31.832Z,3.13
2023-01-13T02:30:40.660Z,3.13
2023-01-13T02:33:34.441Z,3.05
2023-01-13T02:36:35.482Z,2.72
2023-01-13T02:39:37.083Z,4.00
2023-01-13T02:42:44.336Z,4.50
2023-01-13T02:45:16.487Z,2.97
2023-01-13T02:47:47.513Z,3.20
2023-01-13T02:50:18.216Z,2.70
2023-01-13T02:52:52.959Z,3.63
2023-01-13T02:55:30.588Z,4.55
2023-01-13T02:58:00.692Z,3.30
2023-01-13T03:00:28.136Z,4.07
2023-01-13T03:02:55.117Z,3.05
2023-01-13T03:05:22.970Z,4.25
2023-01-13T03:08:00.564Z,2.80
2023-01-13T03:10:44.150Z,2.35
2023-01-13T03:13:28.940Z,2.78
2023-01-13T03:16:25.911Z,1.88
2023-01-13T03:19:30.290Z,2.22
2023-01-13T03:22:23.922Z,1.65
2023-01-13T03:25:00.274Z,1.25
2023-01-13T03:27:35.653Z,1.50
2023-01-13T03:30:23.201Z,1.95
2023-01-13T03:32:53.950Z,2.40
2023-01-13T03:35:40.197Z,3.17
2023-01-13T03:38:11.055Z,1.88
2023-01-13T03:40:48.063Z,1.60
2023-01-13T03:43:42.947Z,1.33
2023-01-13T03:46:18.342Z,1.60
2023-01-13T03:48:46.499Z,1.83
2023-01-13T03:51:17.603Z,2.25
2023-01-13T03:53:53.377Z,1.98
2023-01-13T03:56:28.939Z,2.05
2023-01-13T03:58:59.895Z,1.80
2023-01-13T04:01:33.304Z,2.15
2023-01-13T04:04:01.678Z,1.92
2023-01-13T04:06:42.175Z,2.78
2023-01-13T04:09:19.849Z,1.90
2023-01-13T04:11:56.265Z,2.15
2023-01-13T04:14:25.780Z,2.03
2023-01-13T04:16:55.636Z,2.83
2023-01-13T04:19:22.266Z,2.20
2023-01-13T04:21:48.881Z,2.80
2023-01-13T04:24:15.482Z,2.95
2023-01-13T04:26:42.129Z,2.17
2023-01-13T04:29:08.769Z,2.40
2023-01-13T04:31:35.376Z,2.55
2023-01-13T04:34:02.049Z,2.20
2023-01-13T04:36:28.648Z,3.13
2023-01-13T04:38:55.325Z,3.33
2023-01-13T04:41:21.994Z,3.00
2023-01-13T04:43:48.625Z,2.80
2023-01-13T04:46:15.284Z,2.75
2023-01-13T04:48:41.895Z,2.17
2023-01-13T04:51:08.502Z,2.28
2023-01-13T04:53:35.097Z,2.03
2023-01-13T04:56:01.764Z,2.83
2023-01-13T04:58:28.375Z,2.13
2023-01-13T05:00:55.352Z,2.17
2023-01-13T05:03:24.157Z,2.10
2023-01-13T05:05:52.085Z,3.25
2023-01-13T05:08:18.695Z,2.40
2023-01-13T05:10:45.293Z,1.95
2023-01-13T05:13:30.552Z,2.47
2023-01-13T05:16:16.155Z,2.67
2023-01-13T05:18:42.907Z,2.70
2023-01-13T05:21:29.512Z,2.08
2023-01-13T05:24:14.802Z,2.72
2023-01-13T05:26:41.736Z,2.50
2023-01-13T05:29:08.408Z,3.45
2023-01-13T05:31:35.140Z,3.50
2023-01-13T05:34:01.836Z,2.35
2023-01-13T05:36:28.475Z,2.67
2023-01-13T05:38:55.066Z,2.42
2023-01-13T05:41:40.315Z,2.55
2023-01-13T05:44:06.945Z,2.60
2023-01-13T05:46:33.604Z,2.50
2023-01-13T05:49:01.562Z,2.35
2023-01-13T05:51:28.225Z,2.15
2023-01-13T05:53:54.881Z,3.05
2023-01-13T05:56:21.509Z,2.08
2023-01-13T05:58:48.087Z,2.13
2023-01-13T06:01:14.705Z,1.55
2023-01-13T06:03:41.323Z,2.63
2023-01-13T06:06:08.794Z,2.00
2023-01-13T06:08:37.476Z,2.00
2023-01-13T06:11:05.522Z,1.83
2023-01-13T06:13:32.272Z,1.80
2023-01-13T06:15:59.827Z,1.63
2023-01-13T06:18:27.545Z,2.35
2023-01-13T06:20:54.294Z,2.10
2023-01-13T06:23:21.064Z,2.28
2023-01-13T06:26:00.240Z,2.40
2023-01-13T06:28:26.961Z,1.75
2023-01-13T06:30:57.547Z,2.55
2023-01-13T06:33:30.008Z,2.08
2023-01-13T06:36:00.623Z,2.15
2023-01-13T06:38:30.883Z,2.15
2023-01-13T06:40:57.578Z,1.80
2023-01-13T06:43:24.282Z,1.83
2023-01-13T06:45:51.796Z,2.05
2023-01-13T06:48:22.014Z,2.40
2023-01-13T06:50:48.903Z,1.70
2023-01-13T06:53:16.056Z,2.65
2023-01-13T06:55:42.792Z,1.83
2023-01-13T06:58:09.409Z,2.30
2023-01-13T07:00:37.101Z,2.00
2023-01-13T07:03:15.480Z,1.92
2023-01-13T07:05:43.720Z,2.10
2023-01-13T07:08:10.796Z,2.55
2023-01-13T07:10:38.101Z,1.55
2023-01-13T07:13:24.410Z,3.03
2023-01-13T07:15:59.060Z,2.13
2023-01-13T07:18:28.285Z,1.77
2023-01-13T07:20:56.903Z,1.77
2023-01-13T07:23:24.353Z,2.92
2023-01-13T07:25:51.093Z,1.88
2023-01-13T07:28:17.789Z,1.98
2023-01-13T07:30:44.591Z,2.50
2023-01-13T07:33:11.236Z,1.80
2023-01-13T07:35:38.146Z,2.15
2023-01-13T07:38:04.886Z,2.33
2023-01-13T07:40:31.658Z,2.60
2023-01-13T07:43:16.899Z,2.38
2023-01-13T07:45:43.542Z,2.63
2023-01-13T07:48:10.295Z,2.75
2023-01-13T07:50:36.980Z,3.08
2023-01-13T07:53:03.932Z,2.58
2023-01-13T07:55:30.647Z,2.58
2023-01-13T07:57:57.357Z,2.90
2023-01-13T08:00:24.306Z,2.40
2023-01-13T08:02:51.093Z,2.53
2023-01-13T08:05:18.119Z,2.75
2023-01-13T08:07:44.735Z,2.47
2023-01-13T08:10:11.527Z,2.83
2023-01-13T08:12:57.251Z,2.33
2023-01-13T08:15:23.959Z,3.65
2023-01-13T08:17:50.622Z,2.03
2023-01-13T08:20:17.643Z,2.38
2023-01-13T08:22:44.273Z,2.50
2023-01-13T08:25:11.057Z,3.47
2023-01-13T08:27:37.709Z,2.17
2023-01-13T08:30:05.744Z,3.63
2023-01-13T08:32:32.536Z,2.55
2023-01-13T08:34:59.156Z,2.67
2023-01-13T08:37:25.882Z,2.42
2023-01-13T08:39:52.483Z,3.33
2023-01-13T08:42:19.096Z,2.58
2023-01-13T08:44:45.680Z,2.90
2023-01-13T08:47:12.324Z,3.78
2023-01-13T08:49:39.045Z,2.47
2023-01-13T08:52:05.772Z,3.03
2023-01-13T08:54:32.472Z,2.30
2023-01-13T08:56:59.202Z,3.00
2023-01-13T08:59:25.954Z,3.35
2023-01-13T09:01:52.706Z,2.80
2023-01-13T09:04:22.731Z,2.55
2023-01-13T09:06:50.030Z,2.42
2023-01-13T09:09:17.300Z,3.03
2023-01-13T09:12:05.512Z,3.22
2023-01-13T09:14:34.787Z,3.17
2023-01-13T09:17:01.681Z,2.60
2023-01-13T09:19:29.165Z,2.60
2023-01-13T09:21:56.867Z,2.92
2023-01-13T09:24:24.292Z,4.70
2023-01-13T09:26:51.096Z,3.15
2023-01-13T09:29:18.494Z,3.65
2023-01-13T09:31:45.369Z,3.42
2023-01-13T09:34:38.808Z,4.15
2023-01-13T09:37:06.696Z,2.80
2023-01-13T09:39:34.870Z,3.70
2023-01-13T09:42:29.319Z,3.67
2023-01-13T09:45:05.687Z,3.42
2023-01-13T09:48:07.230Z,4.30
2023-01-13T09:51:00.268Z,3.40
2023-01-13T09:53:29.079Z,3.20
2023-01-13T09:55:56.033Z,3.10
2023-01-13T09:58:22.902Z,2.85
2023-01-13T10:01:29.551Z,3.63
2023-01-13T10:03:56.303Z,3.78
2023-01-13T10:06:38.738Z,4.82
2023-01-13T10:09:06.454Z,3.28
2023-01-13T10:11:58.145Z,3.88
2023-01-13T10:14:52.519Z,2.95
2023-01-13T10:17:30.384Z,2.78
2023-01-13T10:20:16.740Z,3.15
2023-01-13T10:23:23.172Z,3.33
2023-01-13T10:26:05.885Z,3.50
2023-01-13T10:28:32.534Z,3.60
2023-01-13T10:30:59.692Z,3.17
2023-01-13T10:33:28.420Z,3.67
2023-01-13T10:36:06.022Z,3.22
2023-01-13T10:38:37.476Z,3.75
2023-01-13T10:41:20.357Z,3.72
2023-01-13T10:44:04.390Z,3.38
2023-01-13T10:46:33.917Z,3.72
2023-01-13T10:49:22.784Z,4.40
2023-01-13T10:51:49.644Z,3.53
2023-01-13T10:54:22.763Z,3.75
2023-01-13T10:57:10.331Z,4.05
2023-01-13T10:59:36.981Z,3.35
2023-01-13T11:02:23.931Z,3.17
2023-01-13T11:04:58.157Z,3.17
2023-01-13T11:07:38.376Z,2.78
2023-01-13T11:10:27.553Z,4.07
2023-01-13T11:13:12.903Z,2.80
2023-01-13T11:15:58.231Z,4.03
2023-01-13T11:19:02.298Z,2.65
2023-01-13T11:21:36.611Z,4.53
2023-01-13T11:24:38.646Z,3.38
2023-01-13T11:30:03.122Z,3.42
2023-01-13T11:32:36.225Z,3.97
2023-01-13T11:35:15.514Z,3.67
2023-01-13T11:37:47.773Z,3.95
2023-01-13T11:40:20.949Z,3.88
2023-01-13T11:43:13.692Z,2.80
2023-01-13T11:45:55.631Z,3.80
2023-01-13T11:48:28.832Z,5.35
2023-01-13T11:51:13.769Z,5.80
2023-01-13T11:53:57.574Z,3.60
2023-01-13T11:56:33.379Z,3.60
2023-01-13T11:59:27.069Z,3.28
2023-01-13T12:02:12.415Z,3.30
2023-01-13T12:05:11.837Z,4.07
2023-01-13T12:07:51.049Z,3.33
2023-01-13T12:10:23.895Z,3.25
2023-01-13T12:13:00.172Z,3.03
2023-01-13T12:15:51.060Z,4.45
2023-01-13T12:18:42.639Z,3.53
2023-01-13T12:21:20.461Z,3.83
2023-01-13T12:24:13.044Z,3.58
2023-01-13T12:26:46.303Z,3.78
2023-01-13T12:29:18.810Z,3.50
2023-01-13T12:31:48.831Z,3.40
2023-01-13T12:34:32.562Z,3.10
2023-01-13T12:37:25.944Z,3.53
2023-01-13T12:40:19.734Z,3.60
2023-01-13T12:43:09.479Z,3.10
2023-01-13T12:45:36.232Z,3.90
2023-01-13T12:48:04.816Z,3.30
2023-01-13T12:50:31.362Z,3.28
2023-01-13T12:53:17.761Z,3.67
2023-01-13T12:55:44.459Z,2.90
2023-01-13T12:58:11.426Z,2.90
2023-01-13T13:00:41.015Z,3.55
2023-01-13T13:03:09.445Z,3.25
2023-01-13T13:06:09.721Z,2.92
2023-01-13T13:09:04.340Z,3.60
2023-01-13T13:11:53.331Z,3.63
2023-01-13T13:14:38.880Z,5.47
2023-01-13T13:17:28.479Z,2.70
2023-01-13T13:19:59.767Z,3.80
2023-01-13T13:22:26.394Z,3.00
2023-01-13T13:24:55.822Z,4.22
2023-01-13T13:27:26.000Z,4.00
2023-01-13T13:29:52.592Z,3.92
2023-01-13T13:32:57.142Z,3.08
2023-01-13T13:35:51.747Z,3.17
2023-01-13T13:39:01.847Z,3.30
2023-01-13T13:41:48.326Z,4.07
2023-01-13T13:44:50.405Z,3.35
2023-01-13T13:49:49.228Z,3.47
2023-01-13T13:52:26.467Z,3.90
2023-01-13T13:54:58.098Z,3.63
2023-01-13T14:00:15.439Z,3.17
2023-01-13T14:02:51.603Z,3.70
2023-01-13T14:05:24.872Z,3.55
2023-01-13T14:07:59.228Z,3.40
2023-01-13T14:10:35.065Z,3.13
2023-01-13T14:13:12.667Z,3.53
2023-01-13T14:15:41.316Z,3.22
2023-01-13T14:18:18.180Z,3.55
2023-01-13T14:20:52.288Z,3.08
2023-01-13T14:23:22.459Z,3.13
2023-01-13T14:25:51.214Z,3.40
2023-01-13T14:28:32.232Z,3.17
2023-01-13T14:30:59.473Z,4.00
2023-01-13T14:33:34.848Z,2.90
2023-01-13T14:36:18.641Z,3.15
2023-01-13T14:38:50.187Z,3.50
2023-01-13T14:41:26.713Z,4.05
2023-01-13T14:43:57.854Z,3.60
2023-01-13T14:46:25.516Z,3.83
2023-01-13T14:49:00.268Z,3.35
2023-01-13T14:51:29.820Z,3.47
2023-01-13T14:53:57.900Z,3.85
2023-01-13T14:56:47.042Z,3.15
2023-01-13T14:59:47.875Z,3.33
2023-01-13T15:02:29.825Z,2.80
2023-01-13T15:05:00.533Z,3.10
2023-01-13T15:07:29.392Z,2.20
2023-01-13T15:09:59.771Z,2.97
2023-01-13T15:12:37.723Z,2.92
2023-01-13T15:15:26.966Z,2.80
2023-01-13T15:17:53.780Z,3.38
2023-01-13T15:20:22.812Z,3.00
2023-01-13T15:22:50.801Z,3.03
2023-01-13T15:25:18.164Z,3.53
2023-01-13T15:27:46.652Z,3.05
2023-01-13T15:30:20.954Z,2.80
2023-01-13T15:32:47.574Z,5.97
2023-01-13T15:35:16.005Z,3.58
2023-01-13T15:37:43.400Z,2.40
2023-01-13T15:40:18.724Z,2.55
2023-01-13T15:43:04.430Z,3.00
2023-01-13T15:45:52.261Z,2.92
2023-01-13T15:48:22.254Z,2.85
2023-01-13T15:50:49.361Z,3.13
2023-01-13T15:53:16.479Z,3.22
2023-01-13T15:55:46.892Z,2.53
2023-01-13T15:58:14.563Z,2.97
2023-01-13T16:00:42.259Z,2.90
2023-01-13T16:03:15.653Z,3.13
2023-01-13T16:05:43.002Z,3.80
2023-01-13T16:08:21.467Z,3.05
2023-01-13T16:10:49.560Z,2.75
2023-01-13T16:13:16.909Z,3.58
2023-01-13T16:15:55.319Z,3.05
2023-01-13T16:18:24.340Z,2.75
2023-01-13T16:20:55.138Z,3.38
2023-01-13T16:23:22.742Z,2.92
2023-01-13T16:25:49.926Z,2.60
2023-01-13T16:28:27.987Z,2.75
2023-01-13T16:30:54.879Z,3.40
2023-01-13T16:33:21.496Z,3.63
2023-01-13T16:36:11.735Z,2.90
2023-01-13T16:38:34.792Z,4.05
2023-01-13T16:41:01.590Z,3.55
2023-01-13T16:43:28.392Z,3.85
2023-01-13T16:45:55.134Z,4.30
2023-01-13T16:48:22.630Z,3.85
2023-01-13T16:50:49.327Z,4.15
2023-01-13T16:53:15.990Z,4.15
2023-01-13T16:55:43.449Z,3.75
2023-01-13T16:58:19.977Z,3.40
2023-01-13T17:00:47.733Z,3.35
2023-01-13T17:03:15.870Z,2.90
2023-01-13T17:05:44.865Z,3.30
2023-01-13T17:08:17.999Z,4.13
2023-01-13T17:10:48.071Z,3.60
2023-01-13T17:13:16.737Z,3.33
2023-01-13T17:15:45.166Z,6.13
2023-01-13T17:18:13.356Z,3.60
2023-01-13T17:20:40.925Z,3.38
2023-01-13T17:23:07.580Z,3.55
2023-01-13T17:25:34.223Z,4.07
2023-01-13T17:28:01.004Z,3.60
2023-01-13T17:30:27.678Z,3.47
2023-01-13T17:32:54.383Z,3.30
2023-01-13T17:35:24.495Z,4.00
2023-01-13T17:37:52.295Z,3.50
2023-01-13T17:40:18.945Z,3.17
2023-01-13T17:42:45.555Z,2.72
2023-01-13T17:45:12.334Z,3.78
2023-01-13T17:47:39.165Z,4.43
2023-01-13T17:50:06.244Z,3.28
2023-01-13T17:52:33.870Z,2.72
2023-01-13T17:55:00.512Z,3.63
2023-01-13T17:57:27.656Z,3.88
2023-01-13T17:59:54.325Z,4.03
2023-01-13T18:02:21.049Z,4.38
2023-01-13T18:04:47.779Z,2.90
2023-01-13T18:07:14.387Z,3.15
2023-01-13T18:09:41.049Z,3.65
2023-01-13T18:12:07.728Z,3.03
2023-01-13T18:14:34.671Z,3.35
2023-01-13T18:17:01.299Z,3.85
2023-01-13T18:19:46.604Z,3.17
2023-01-13T18:22:32.293Z,3.55
2023-01-13T18:25:17.864Z,4.95
2023-01-13T18:27:44.567Z,2.85
2023-01-13T18:30:12.467Z,3.33
2023-01-13T18:32:39.312Z,3.88
2023-01-13T18:35:10.043Z,3.38
2023-01-13T18:37:42.107Z,3.67
2023-01-13T18:40:11.480Z,3.00
2023-01-13T18:42:56.222Z,3.95
2023-01-13T18:45:28.710Z,3.60
2023-01-13T18:47:58.508Z,3.50
2023-01-13T18:50:25.702Z,3.03
2023-01-13T18:52:52.534Z,3.15
2023-01-13T18:55:19.545Z,2.92
2023-01-13T18:57:46.423Z,4.00
2023-01-13T19:00:16.737Z,3.85
2023-01-13T19:02:44.047Z,3.85
2023-01-13T19:05:11.003Z,3.30
2023-01-13T19:07:37.780Z,3.63
2023-01-13T19:10:06.495Z,3.15
2023-01-13T19:12:34.126Z,3.00
2023-01-13T19:15:01.971Z,3.35
2023-01-13T19:17:33.389Z,2.85
2023-01-13T19:20:00.315Z,3.13
2023-01-13T19:22:30.265Z,3.30
2023-01-13T19:24:58.097Z,4.03
2023-01-13T19:27:27.230Z,3.65
2023-01-13T19:29:57.320Z,3.40
2023-01-13T19:32:24.375Z,2.95
2023-01-13T19:34:51.410Z,3.55
2023-01-13T19:37:19.032Z,3.50
2023-01-13T19:39:45.834Z,3.13
2023-01-13T19:42:31.886Z,3.50
2023-01-13T19:45:17.217Z,4.10
2023-01-13T19:47:45.430Z,3.63
2023-01-13T19:50:13.374Z,3.17
2023-01-13T19:52:40.905Z,4.97
2023-01-13T19:55:07.820Z,3.05
2023-01-13T19:57:34.416Z,3.63
2023-01-13T20:00:01.109Z,3.28
2023-01-13T20:02:28.051Z,4.32
2023-01-13T20:04:56.220Z,3.20
2023-01-13T20:07:24.664Z,3.25
2023-01-13T20:09:52.278Z,3.30
2023-01-13T20:12:19.960Z,4.00
2023-01-13T20:14:49.972Z,2.92
2023-01-13T20:17:19.016Z,3.60
2023-01-13T20:19:45.987Z,4.35
2023-01-13T20:22:13.457Z,4.95
2023-01-13T20:24:40.133Z,4.18
2023-01-13T20:27:07.005Z,3.80
2023-01-13T20:29:34.666Z,5.30
2023-01-13T20:32:01.481Z,4.35
2023-01-13T20:34:28.276Z,4.45
2023-01-13T20:36:54.976Z,5.32
2023-01-13T20:39:28.764Z,6.00
2023-01-13T20:42:14.582Z,4.10
2023-01-13T20:44:41.829Z,4.05
2023-01-13T20:47:08.463Z,5.50
2023-01-13T20:49:36.733Z,5.68
2023-01-13T20:52:09.116Z,4.53
2023-01-13T20:54:40.453Z,4.45
2023-01-13T20:57:09.707Z,3.85
2023-01-13T20:59:37.544Z,4.57
2023-01-13T21:02:05.744Z,4.43
2023-01-13T21:04:32.380Z,4.35
2023-01-13T21:06:59.160Z,4.00
2023-01-13T21:09:27.119Z,4.75
2023-01-13T21:12:12.684Z,5.32
2023-01-13T21:14:58.281Z,4.95
2023-01-13T21:17:43.452Z,4.38
2023-01-13T21:20:12.713Z,4.65
2023-01-13T21:22:40.550Z,4.15
2023-01-13T21:25:07.657Z,4.35
2023-01-13T21:27:34.610Z,5.22
2023-01-13T21:30:01.325Z,4.25
2023-01-13T21:32:28.039Z,4.82
2023-01-13T21:34:54.766Z,5.13
2023-01-13T21:37:22.061Z,4.90
2023-01-13T21:39:49.023Z,4.05
2023-01-13T21:42:35.147Z,4.18
2023-01-13T21:45:21.262Z,4.20
2023-01-13T21:47:48.163Z,4.85
2023-01-13T21:50:20.812Z,4.40
2023-01-13T21:52:49.170Z,5.75
2023-01-13T21:55:28.463Z,5.75
2023-01-13T21:58:01.081Z,6.20
2023-01-13T22:00:30.174Z,4.00
2023-01-13T22:02:58.618Z,5.97
2023-01-13T22:05:26.275Z,4.18
2023-01-13T22:07:53.319Z,5.63
2023-01-13T22:10:23.890Z,4.95
2023-01-13T22:12:55.278Z,4.38
2023-01-13T22:15:25.852Z,5.35
2023-01-13T22:17:53.992Z,5.07
2023-01-13T22:20:21.626Z,5.00
2023-01-13T22:22:48.691Z,4.72
2023-01-13T22:25:16.511Z,4.57
2023-01-13T22:27:44.589Z,5.05
2023-01-13T22:30:12.981Z,4.85
2023-01-13T22:32:39.906Z,6.15
2023-01-13T22:35:08.397Z,4.35
2023-01-13T22:37:35.938Z,4.28
2023-01-13T22:40:03.900Z,6.78
2023-01-13T22:42:30.667Z,4.35
2023-01-13T22:44:57.285Z,4.72
2023-01-13T22:47:23.918Z,4.82
2023-01-13T22:49:50.666Z,4.88
2023-01-13T22:52:17.398Z,4.32
2023-01-13T22:54:44.020Z,5.40
2023-01-13T22:57:10.654Z,5.68
2023-01-13T22:59:37.290Z,4.68
2023-01-13T23:02:03.910Z,4.95
2023-01-13T23:04:30.816Z,5.50
2023-01-13T23:06:57.564Z,4.47
2023-01-13T23:09:24.335Z,4.78
2023-01-13T23:11:51.319Z,4.38
2023-01-13T23:14:18.036Z,4.75
2023-01-13T23:16:46.739Z,4.75
2023-01-13T23:19:13.799Z,4.88
2023-01-13T23:21:40.691Z,6.22
2023-01-13T23:24:08.245Z,5.63
2023-01-13T23:26:35.867Z,5.78
2023-01-13T23:29:08.199Z,4.32
2023-01-13T23:31:35.191Z,5.63
2023-01-13T23:34:02.590Z,3.65
2023-01-13T23:36:30.269Z,5.82
2023-01-13T23:38:59.148Z,4.50
2023-01-13T23:41:27.583Z,4.45
2023-01-13T23:43:59.765Z,5.20
2023-01-13T23:46:31.185Z,4.65
2023-01-13T23:48:58.126Z,4.88
2023-01-13T23:51:26.209Z,4.80
2023-01-13T23:53:52.869Z,4.72
2023-01-13T23:56:24.683Z,6.38
2023-01-13T23:58:51.659Z,5.18
